createdAt,value
2022-10-24T00:00:34.012Z,10.40
2022-10-24T00:03:22.762Z,10.37
2022-10-24T00:05:52.050Z,10.34
2022-10-24T00:08:20.937Z,10.35
2022-10-24T00:10:51.533Z,10.36
2022-10-24T00:13:21.695Z,10.37
2022-10-24T00:15:50.963Z,10.36
2022-10-24T00:18:19.657Z,10.35
2022-10-24T00:20:49.832Z,10.33
2022-10-24T00:23:18.878Z,10.33
2022-10-24T00:25:50.170Z,10.33
2022-10-24T00:28:19.400Z,10.32
2022-10-24T00:30:53.760Z,10.33
2022-10-24T00:33:24.406Z,10.34
2022-10-24T00:35:54.732Z,10.36
2022-10-24T00:38:26.023Z,10.37
2022-10-24T00:40:56.338Z,10.39
2022-10-24T00:43:27.717Z,10.40
2022-10-24T00:46:00.925Z,10.40
2022-10-24T00:48:47.235Z,10.40
2022-10-24T00:51:17.697Z,10.43
2022-10-24T00:53:50.271Z,10.45
2022-10-24T00:56:23.563Z,10.46
2022-10-24T00:58:54.231Z,10.48
2022-10-24T01:01:26.634Z,10.49
2022-10-24T01:03:57.877Z,10.50
2022-10-24T01:06:53.872Z,10.51
2022-10-24T01:09:45.607Z,10.52
2022-10-24T01:12:23.819Z,10.52
2022-10-24T01:15:24.075Z,10.51
2022-10-24T01:18:12.225Z,10.50
2022-10-24T01:20:56.544Z,10.49
2022-10-24T01:23:41.299Z,10.48
2022-10-24T01:26:45.910Z,10.48
2022-10-24T01:29:23.866Z,10.48
2022-10-24T01:32:25.266Z,10.48
2022-10-24T01:35:03.725Z,10.50
2022-10-24T01:37:59.544Z,10.50
2022-10-24T01:40:45.916Z,10.51
2022-10-24T01:43:29.615Z,10.51
2022-10-24T01:46:03.584Z,10.50
2022-10-24T01:48:39.439Z,10.48
2022-10-24T01:51:09.884Z,10.47
2022-10-24T01:53:42.509Z,10.46
2022-10-24T01:56:11.586Z,10.45
2022-10-24T01:58:40.203Z,10.44
2022-10-24T02:01:19.166Z,10.42
2022-10-24T02:03:52.459Z,10.40
2022-10-24T02:06:28.622Z,10.38
2022-10-24T02:09:07.495Z,10.37
2022-10-24T02:11:39.292Z,10.33
2022-10-24T02:14:24.687Z,10.31
2022-10-24T02:16:55.266Z,10.29
2022-10-24T02:19:25.847Z,10.29
2022-10-24T02:22:27.567Z,10.29
2022-10-24T02:25:04.125Z,10.29
2022-10-24T02:27:41.574Z,10.28
2022-10-24T02:30:14.981Z,10.28
2022-10-24T02:32:53.935Z,10.28
2022-10-24T02:35:29.332Z,10.27
2022-10-24T02:38:08.243Z,10.25
2022-10-24T02:40:38.426Z,10.24
2022-10-24T02:43:08.970Z,10.24
2022-10-24T02:45:41.360Z,10.24
2022-10-24T02:48:14.924Z,10.23
2022-10-24T02:50:45.680Z,10.21
2022-10-24T02:53:17.084Z,10.21
2022-10-24T02:55:45.984Z,10.21
2022-10-24T02:58:17.742Z,10.20
2022-10-24T03:00:48.078Z,10.21
2022-10-24T03:07:50.807Z,10.20
2022-10-24T03:10:20.866Z,10.21
2022-10-24T03:12:53.087Z,10.21
2022-10-24T03:15:21.931Z,10.22
2022-10-24T03:17:51.022Z,10.23
2022-10-24T03:20:19.770Z,10.24
2022-10-24T03:22:50.638Z,10.26
2022-10-24T03:25:20.394Z,10.27
2022-10-24T03:27:51.823Z,10.28
2022-10-24T03:30:21.719Z,10.29
2022-10-24T03:32:52.537Z,10.28
2022-10-24T03:35:23.310Z,10.29
2022-10-24T03:37:52.587Z,10.29
2022-10-24T03:40:23.303Z,10.31
2022-10-24T03:42:53.462Z,10.32
2022-10-24T03:45:22.177Z,10.34
2022-10-24T03:47:50.785Z,10.34
2022-10-24T03:50:20.074Z,10.36
2022-10-24T03:52:50.188Z,10.36
2022-10-24T03:55:19.623Z,10.38
2022-10-24T03:57:50.403Z,10.40
2022-10-24T04:00:20.147Z,10.40
2022-10-24T04:07:35.888Z,10.39
2022-10-24T04:10:06.087Z,10.38
2022-10-24T04:12:35.831Z,10.37
2022-10-24T04:15:06.886Z,10.36
2022-10-24T04:17:36.114Z,10.34
2022-10-24T04:20:05.723Z,10.34
2022-10-24T04:22:37.142Z,10.34
2022-10-24T04:25:08.271Z,10.34
2022-10-24T04:27:41.088Z,10.33
2022-10-24T04:30:16.687Z,10.33
2022-10-24T04:32:47.812Z,10.33
2022-10-24T04:35:17.785Z,10.33
2022-10-24T04:37:47.075Z,10.32
2022-10-24T04:40:16.144Z,10.33
2022-10-24T04:42:47.794Z,10.32
2022-10-24T04:45:17.894Z,10.33
2022-10-24T04:47:47.627Z,10.34
2022-10-24T04:50:18.286Z,10.34
2022-10-24T04:52:47.136Z,10.33
2022-10-24T04:55:15.914Z,10.34
2022-10-24T04:57:46.919Z,10.34
2022-10-24T05:00:16.509Z,10.33
2022-10-24T05:02:53.039Z,10.33
2022-10-24T05:05:24.661Z,10.33
2022-10-24T05:07:54.114Z,10.34
2022-10-24T05:10:22.949Z,10.37
2022-10-24T05:12:52.786Z,10.38
2022-10-24T05:15:22.406Z,10.38
2022-10-24T05:17:51.819Z,10.38
2022-10-24T05:20:21.004Z,10.39
2022-10-24T05:22:50.148Z,10.40
2022-10-24T05:25:22.524Z,10.39
2022-10-24T05:27:51.348Z,10.40
2022-10-24T05:30:20.600Z,10.39
2022-10-24T05:32:49.500Z,10.40
2022-10-24T05:35:19.138Z,10.42
2022-10-24T05:37:49.588Z,10.44
2022-10-24T05:40:20.785Z,10.45
2022-10-24T05:42:50.303Z,10.46
2022-10-24T05:45:20.488Z,10.47
2022-10-24T05:47:52.016Z,10.47
2022-10-24T05:50:22.163Z,10.47
2022-10-24T05:52:53.520Z,10.47
2022-10-24T05:55:25.634Z,10.47
2022-10-24T05:57:54.917Z,10.49
2022-10-24T06:00:28.275Z,10.50
2022-10-24T06:02:59.775Z,10.51
2022-10-24T06:05:33.391Z,10.53
2022-10-24T06:08:03.852Z,10.55
2022-10-24T06:10:35.439Z,10.56
2022-10-24T06:13:06.883Z,10.57
2022-10-24T06:15:37.744Z,10.57
2022-10-24T06:18:06.803Z,10.56
2022-10-24T06:20:35.540Z,10.57
2022-10-24T06:23:04.312Z,10.56
2022-10-24T06:25:33.183Z,10.55
2022-10-24T06:28:02.549Z,10.53
2022-10-24T06:30:33.403Z,10.53
2022-10-24T06:33:04.274Z,10.53
2022-10-24T06:35:36.664Z,10.54
2022-10-24T06:38:08.492Z,10.54
2022-10-24T06:40:41.212Z,10.56
2022-10-24T06:43:10.043Z,10.61
2022-10-24T06:45:39.302Z,10.64
2022-10-24T06:48:08.751Z,10.67
2022-10-24T06:50:43.474Z,10.69
2022-10-24T06:53:13.473Z,10.71
2022-10-24T06:55:42.334Z,10.74
2022-10-24T06:58:11.308Z,10.77
2022-10-24T07:00:41.076Z,10.77
2022-10-24T07:03:16.610Z,10.79
2022-10-24T07:05:47.009Z,10.82
2022-10-24T07:08:16.406Z,10.84
2022-10-24T07:10:46.582Z,10.87
2022-10-24T07:13:16.941Z,10.90
2022-10-24T07:15:45.873Z,10.94
2022-10-24T07:18:16.690Z,10.98
2022-10-24T07:20:45.373Z,11.01
2022-10-24T07:23:15.803Z,11.05
2022-10-24T07:25:46.558Z,11.07
2022-10-24T07:28:15.856Z,11.09
2022-10-24T07:30:46.364Z,11.10
2022-10-24T07:33:17.230Z,11.12
2022-10-24T07:35:45.843Z,11.14
2022-10-24T07:38:16.509Z,11.19
2022-10-24T07:40:48.524Z,11.26
2022-10-24T07:43:19.769Z,11.30
2022-10-24T07:45:51.808Z,11.35
2022-10-24T07:48:22.946Z,11.41
2022-10-24T07:50:52.062Z,11.48
2022-10-24T07:53:23.096Z,11.57
2022-10-24T07:55:54.894Z,11.67
2022-10-24T07:58:25.112Z,11.79
2022-10-24T08:00:56.474Z,11.85
2022-10-24T08:03:26.774Z,11.83
2022-10-24T08:05:58.026Z,11.79
2022-10-24T08:08:36.262Z,11.76
2022-10-24T08:11:18.236Z,11.77
2022-10-24T08:13:46.927Z,11.83
2022-10-24T08:16:22.012Z,11.94
2022-10-24T08:18:53.681Z,12.06
2022-10-24T08:21:24.054Z,12.11
2022-10-24T08:23:54.804Z,12.10
2022-10-24T08:26:25.964Z,12.03
2022-10-24T08:28:56.121Z,11.96
2022-10-24T08:31:26.516Z,11.92
2022-10-24T08:33:56.957Z,11.95
2022-10-24T08:36:31.956Z,12.06
2022-10-24T08:39:02.987Z,12.23
2022-10-24T08:41:37.566Z,12.44
2022-10-24T08:44:27.794Z,12.48
2022-10-24T08:50:28.824Z,12.51
2022-10-24T08:53:21.807Z,12.54
2022-10-24T08:55:53.917Z,12.55
2022-10-24T08:58:37.948Z,12.54
2022-10-24T09:01:28.755Z,12.50
2022-10-24T09:04:03.736Z,12.48
2022-10-24T09:06:33.581Z,12.50
2022-10-24T09:09:12.396Z,12.50
2022-10-24T09:11:53.051Z,12.52
2022-10-24T09:14:28.714Z,12.51
2022-10-24T09:17:01.695Z,12.49
2022-10-24T09:19:33.538Z,12.47
2022-10-24T09:22:03.384Z,12.46
2022-10-24T09:25:02.799Z,12.44
2022-10-24T09:27:39.540Z,12.40
2022-10-24T09:30:16.276Z,12.41
2022-10-24T09:32:47.588Z,12.44
2022-10-24T09:35:25.813Z,12.44
2022-10-24T09:37:56.920Z,12.50
2022-10-24T09:40:34.219Z,12.56
2022-10-24T09:43:23.014Z,12.61
2022-10-24T09:46:07.117Z,12.66
2022-10-24T09:48:54.385Z,12.75
2022-10-24T09:51:29.398Z,12.86
2022-10-24T09:54:00.440Z,12.96
2022-10-24T09:56:41.384Z,13.01
2022-10-24T09:59:19.071Z,13.06
2022-10-24T10:01:48.198Z,13.11
2022-10-24T10:04:19.908Z,13.16
2022-10-24T10:06:50.733Z,13.21
2022-10-24T10:09:32.028Z,13.27
2022-10-24T10:12:03.136Z,13.35
2022-10-24T10:14:41.919Z,13.41
2022-10-24T10:17:24.112Z,13.50
2022-10-24T10:19:55.732Z,13.63
2022-10-24T10:22:33.187Z,13.69
2022-10-24T10:25:02.029Z,13.72
2022-10-24T10:27:38.231Z,13.76
2022-10-24T10:30:16.736Z,13.82
2022-10-24T10:33:19.865Z,13.92
2022-10-24T10:36:08.634Z,13.99
2022-10-24T10:38:52.032Z,13.95
2022-10-24T10:41:36.595Z,13.92
2022-10-24T10:44:30.186Z,13.91
2022-10-24T10:47:21.712Z,13.95
2022-10-24T10:49:58.489Z,14.00
2022-10-24T10:52:34.116Z,14.02
2022-10-24T10:55:24.920Z,14.04
2022-10-24T10:57:59.529Z,14.06
2022-10-24T11:00:59.502Z,14.10
2022-10-24T11:03:37.508Z,14.40
2022-10-24T11:06:49.607Z,15.04
2022-10-24T11:09:24.955Z,16.09
2022-10-24T11:12:19.904Z,17.36
2022-10-24T11:14:51.964Z,17.97
2022-10-24T11:17:29.391Z,18.24
2022-10-24T11:20:20.571Z,18.11
2022-10-24T11:23:01.446Z,18.33
2022-10-24T11:25:42.711Z,18.84
2022-10-24T11:28:47.294Z,18.63
2022-10-24T11:31:23.837Z,17.94
2022-10-24T11:34:09.014Z,17.55
2022-10-24T11:37:08.581Z,17.60
2022-10-24T11:40:00.112Z,17.22
2022-10-24T11:43:03.653Z,16.87
2022-10-24T11:45:52.034Z,16.61
2022-10-24T11:48:58.110Z,16.31
2022-10-24T11:51:37.632Z,16.01
2022-10-24T11:54:34.413Z,15.94
2022-10-24T11:57:16.260Z,16.03
2022-10-24T11:59:46.556Z,16.25
2022-10-24T12:03:12.220Z,16.42
2022-10-24T12:05:56.380Z,16.46
2022-10-24T12:08:43.201Z,16.61
2022-10-24T12:11:41.557Z,16.44
2022-10-24T12:15:05.326Z,16.09
2022-10-24T12:18:21.313Z,15.64
2022-10-24T12:20:56.787Z,15.48
2022-10-24T12:23:31.990Z,15.42
2022-10-24T12:26:09.320Z,15.39
2022-10-24T12:28:40.334Z,15.32
2022-10-24T12:31:25.356Z,15.22
2022-10-24T12:34:17.467Z,15.11
2022-10-24T12:37:12.502Z,15.04
2022-10-24T12:39:47.439Z,15.03
2022-10-24T12:42:23.988Z,15.06
2022-10-24T12:45:00.747Z,15.01
2022-10-24T12:48:04.507Z,14.97
2022-10-24T12:50:36.356Z,14.95
2022-10-24T12:53:18.033Z,14.97
2022-10-24T12:55:50.371Z,15.03
2022-10-24T12:58:44.330Z,15.12
2022-10-24T13:01:30.082Z,15.19
2022-10-24T13:07:50.009Z,15.22
2022-10-24T13:10:54.542Z,15.21
2022-10-24T13:13:48.059Z,15.22
2022-10-24T13:16:59.304Z,15.15
2022-10-24T13:19:29.939Z,15.10
2022-10-24T13:22:02.220Z,15.05
2022-10-24T13:24:41.716Z,14.99
2022-10-24T13:27:14.531Z,14.94
2022-10-24T13:29:45.764Z,14.89
2022-10-24T13:32:16.314Z,14.87
2022-10-24T13:34:52.067Z,14.88
2022-10-24T13:37:25.157Z,14.90
2022-10-24T13:40:10.438Z,14.90
2022-10-24T13:42:51.153Z,14.93
2022-10-24T13:45:40.470Z,14.97
2022-10-24T13:48:14.552Z,14.99
2022-10-24T13:50:57.500Z,14.98
2022-10-24T13:53:37.797Z,14.96
2022-10-24T13:56:11.935Z,14.97
2022-10-24T13:58:44.904Z,14.97
2022-10-24T14:01:24.363Z,15.00
2022-10-24T14:03:55.384Z,15.00
2022-10-24T14:06:32.742Z,15.00
2022-10-24T14:09:07.270Z,14.99
2022-10-24T14:11:45.048Z,14.99
2022-10-24T14:14:32.737Z,14.97
2022-10-24T14:17:29.176Z,15.02
2022-10-24T14:20:03.536Z,15.16
2022-10-24T14:22:43.619Z,15.45
2022-10-24T14:25:27.009Z,15.82
2022-10-24T14:28:02.102Z,16.15
2022-10-24T14:30:35.137Z,16.39
2022-10-24T14:33:21.089Z,16.55
2022-10-24T14:35:56.676Z,16.70
2022-10-24T14:38:30.242Z,16.74
2022-10-24T14:41:08.781Z,16.76
2022-10-24T14:43:43.962Z,16.73
2022-10-24T14:46:14.520Z,16.64
2022-10-24T14:48:51.331Z,16.55
2022-10-24T14:51:21.520Z,16.36
2022-10-24T14:53:51.251Z,16.16
2022-10-24T14:56:35.300Z,15.98
2022-10-24T14:59:07.695Z,15.80
2022-10-24T15:02:15.044Z,15.65
2022-10-24T15:04:46.311Z,15.47
2022-10-24T15:07:24.364Z,15.35
2022-10-24T15:10:04.216Z,15.21
2022-10-24T15:12:40.085Z,15.04
2022-10-24T15:15:46.977Z,14.89
2022-10-24T15:18:28.093Z,14.72
2022-10-24T15:21:08.469Z,14.63
2022-10-24T15:23:47.131Z,14.51
2022-10-24T15:26:22.620Z,14.40
2022-10-24T15:28:51.464Z,14.31
2022-10-24T15:31:26.368Z,14.27
2022-10-24T15:33:55.589Z,14.21
2022-10-24T15:36:31.407Z,14.10
2022-10-24T15:39:06.233Z,13.99
2022-10-24T15:41:36.169Z,13.87
2022-10-24T15:44:31.762Z,13.79
2022-10-24T15:47:03.911Z,13.70
2022-10-24T15:49:36.684Z,13.62
2022-10-24T15:52:10.868Z,13.54
2022-10-24T15:54:42.464Z,13.50
2022-10-24T15:57:13.528Z,13.49
2022-10-24T15:59:44.702Z,13.48
2022-10-24T16:02:20.901Z,13.45
2022-10-24T16:04:50.134Z,13.43
2022-10-24T16:07:22.996Z,13.40
2022-10-24T16:09:52.917Z,13.37
2022-10-24T16:12:24.307Z,13.37
2022-10-24T16:14:53.584Z,13.34
2022-10-24T16:17:22.928Z,13.32
2022-10-24T16:19:52.415Z,13.31
2022-10-24T16:22:21.702Z,13.28
2022-10-24T16:24:54.861Z,13.22
2022-10-24T16:27:24.546Z,13.17
2022-10-24T16:29:56.495Z,13.11
2022-10-24T16:32:27.291Z,13.06
2022-10-24T16:34:58.858Z,13.01
2022-10-24T16:37:54.671Z,12.97
2022-10-24T16:40:24.031Z,12.95
2022-10-24T16:42:55.768Z,12.95
2022-10-24T16:45:26.081Z,12.98
2022-10-24T16:47:56.706Z,13.03
2022-10-24T16:50:31.298Z,13.09
2022-10-24T16:53:09.982Z,13.13
2022-10-24T16:55:41.651Z,13.18
2022-10-24T16:58:13.478Z,13.20
2022-10-24T17:00:47.751Z,13.20
2022-10-24T17:03:21.242Z,13.22
2022-10-24T17:05:55.916Z,13.26
2022-10-24T17:08:25.528Z,13.29
2022-10-24T17:10:57.029Z,13.32
2022-10-24T17:13:28.612Z,13.33
2022-10-24T17:15:58.079Z,13.35
2022-10-24T17:18:30.123Z,13.36
2022-10-24T17:21:04.220Z,13.37
2022-10-24T17:23:35.663Z,13.38
2022-10-24T17:26:05.992Z,13.37
2022-10-24T17:28:36.852Z,13.36
2022-10-24T17:31:14.190Z,13.34
2022-10-24T17:33:44.609Z,13.30
2022-10-24T17:36:22.252Z,13.29
2022-10-24T17:39:14.208Z,13.28
2022-10-24T17:41:47.049Z,13.27
2022-10-24T17:44:19.821Z,13.27
2022-10-24T17:46:54.608Z,13.26
2022-10-24T17:49:28.681Z,13.27
2022-10-24T17:52:01.037Z,13.26
2022-10-24T17:54:30.477Z,13.26
2022-10-24T17:57:03.779Z,13.24
2022-10-24T17:59:35.864Z,13.23
2022-10-24T18:02:07.371Z,13.23
2022-10-24T18:04:41.551Z,13.23
2022-10-24T18:07:14.583Z,13.22
2022-10-24T18:09:47.127Z,13.20
2022-10-24T18:12:21.875Z,13.17
2022-10-24T18:14:53.730Z,13.13
2022-10-24T18:17:24.772Z,13.10
2022-10-24T18:19:57.105Z,13.06
2022-10-24T18:22:32.090Z,13.05
2022-10-24T18:25:04.325Z,13.06
2022-10-24T18:27:40.315Z,13.09
2022-10-24T18:30:14.052Z,13.11
2022-10-24T18:32:45.393Z,13.15
2022-10-24T18:35:21.836Z,13.19
2022-10-24T18:37:53.932Z,13.23
2022-10-24T18:40:27.184Z,13.28
2022-10-24T18:43:06.008Z,13.31
2022-10-24T18:45:38.562Z,13.34
2022-10-24T18:48:11.268Z,13.35
2022-10-24T18:50:43.294Z,13.35
2022-10-24T18:53:27.914Z,13.40
2022-10-24T18:55:58.571Z,13.46
2022-10-24T18:58:31.051Z,13.44
2022-10-24T19:01:03.920Z,13.42
2022-10-24T19:03:40.282Z,13.39
2022-10-24T19:06:22.334Z,13.37
2022-10-24T19:08:55.074Z,13.38
2022-10-24T19:11:25.559Z,13.36
2022-10-24T19:13:56.690Z,13.38
2022-10-24T19:16:31.535Z,13.42
2022-10-24T19:19:06.839Z,13.49
2022-10-24T19:21:37.383Z,13.54
2022-10-24T19:24:08.571Z,13.59
2022-10-24T19:26:39.317Z,13.62
2022-10-24T19:29:09.626Z,13.66
2022-10-24T19:31:41.925Z,13.69
2022-10-24T19:34:17.244Z,13.70
2022-10-24T19:36:47.474Z,13.68
2022-10-24T19:39:17.634Z,13.68
2022-10-24T19:41:49.025Z,13.67
2022-10-24T19:44:22.047Z,13.66
2022-10-24T19:46:53.151Z,13.65
2022-10-24T19:49:27.402Z,13.66
2022-10-24T19:51:59.005Z,13.68
2022-10-24T19:54:34.084Z,13.70
2022-10-24T19:57:04.974Z,13.72
2022-10-24T19:59:36.932Z,13.73
2022-10-24T20:02:28.614Z,13.73
2022-10-24T20:05:03.116Z,13.73
2022-10-24T20:07:34.312Z,13.73
2022-10-24T20:10:05.621Z,13.72
2022-10-24T20:12:35.829Z,13.73
2022-10-24T20:15:15.404Z,13.76
2022-10-24T20:17:46.324Z,13.77
2022-10-24T20:20:20.518Z,13.75
2022-10-24T20:22:50.858Z,13.71
2022-10-24T20:25:20.900Z,13.70
2022-10-24T20:27:51.710Z,13.69
2022-10-24T20:30:22.507Z,13.68
2022-10-24T20:32:56.392Z,13.66
2022-10-24T20:35:26.807Z,13.65
2022-10-24T20:37:55.675Z,13.66
2022-10-24T20:40:27.207Z,13.69
2022-10-24T20:42:58.219Z,13.71
2022-10-24T20:45:28.684Z,13.72
2022-10-24T20:47:57.409Z,13.72
2022-10-24T20:50:30.022Z,13.71
2022-10-24T20:53:00.623Z,13.71
2022-10-24T20:55:43.958Z,13.73
2022-10-24T20:58:13.974Z,13.74
2022-10-24T21:00:45.574Z,13.77
2022-10-24T21:03:17.010Z,13.77
2022-10-24T21:05:48.239Z,13.76
2022-10-24T21:08:18.846Z,13.73
2022-10-24T21:10:49.131Z,13.70
2022-10-24T21:13:21.929Z,13.68
2022-10-24T21:16:00.117Z,13.66
2022-10-24T21:18:33.939Z,13.66
2022-10-24T21:21:13.310Z,13.65
2022-10-24T21:23:52.271Z,13.65
2022-10-24T21:26:27.399Z,13.66
2022-10-24T21:29:08.515Z,13.66
2022-10-24T21:31:47.627Z,13.68
2022-10-24T21:34:17.127Z,13.70
2022-10-24T21:36:49.408Z,13.73
2022-10-24T21:39:18.718Z,13.75
2022-10-24T21:41:49.454Z,13.79
2022-10-24T21:44:19.583Z,13.83
2022-10-24T21:46:48.781Z,13.85
2022-10-24T21:49:18.889Z,13.85
2022-10-24T21:51:49.788Z,13.85
2022-10-24T21:54:26.011Z,13.83
2022-10-24T21:56:56.989Z,13.81
2022-10-24T21:59:27.704Z,13.81
2022-10-24T22:02:01.193Z,13.81
2022-10-24T22:04:31.658Z,13.82
2022-10-24T22:07:00.395Z,13.82
2022-10-24T22:09:30.985Z,13.82
2022-10-24T22:12:00.960Z,13.82
2022-10-24T22:14:32.765Z,13.81
2022-10-24T22:17:03.043Z,13.80
2022-10-24T22:19:32.424Z,13.80
2022-10-24T22:22:03.790Z,13.80
2022-10-24T22:24:32.440Z,13.81
2022-10-24T22:27:01.181Z,13.81
2022-10-24T22:29:30.145Z,13.82
2022-10-24T22:32:00.351Z,13.85
2022-10-24T22:34:30.791Z,13.88
2022-10-24T22:37:24.160Z,13.93
2022-10-24T22:39:56.564Z,13.97
2022-10-24T22:42:27.191Z,14.02
2022-10-24T22:44:56.772Z,14.05
2022-10-24T22:47:48.046Z,14.07
2022-10-24T22:50:30.144Z,14.09
2022-10-24T22:53:00.764Z,14.09
2022-10-24T22:55:42.385Z,14.10
2022-10-24T22:58:12.514Z,14.10
2022-10-24T23:00:41.600Z,14.10
2022-10-24T23:03:39.830Z,14.11
2022-10-24T23:06:22.225Z,14.10
2022-10-24T23:08:53.600Z,14.10
2022-10-24T23:11:23.823Z,14.09
2022-10-24T23:13:54.363Z,14.07
2022-10-24T23:16:44.959Z,14.05
2022-10-24T23:19:19.372Z,13.98
2022-10-24T23:21:50.489Z,13.91
2022-10-24T23:24:20.017Z,13.86
2022-10-24T23:27:04.007Z,13.85
2022-10-24T23:29:35.761Z,13.83
2022-10-24T23:32:06.305Z,13.80
2022-10-24T23:34:37.011Z,13.80
2022-10-24T23:37:13.328Z,13.81
2022-10-24T23:39:44.276Z,13.83
2022-10-24T23:42:13.740Z,13.85
2022-10-24T23:44:44.102Z,13.85
2022-10-24T23:47:43.381Z,13.88
2022-10-24T23:50:36.793Z,13.90
2022-10-24T23:53:25.274Z,13.91
2022-10-24T23:55:54.873Z,13.91
2022-10-24T23:58:23.725Z,13.93
